Little Hocking, Ohio
Current Conditions -  °F | °C
As of 3:53 AM on Wednesday 26 Nov 2014 (Local Time) from KPKB Reporting Station
Clear Clear  
Wind Chill: 28°   Ceiling: Unl
Heat Index: 33°   Visibility: 10mi
Dew Point: 26°   Wind: 6mph
Humidity: 75%   Direction: 340°NNW
Pressure: 30.1"   Gusts: NA
Location:  39.26°N, 81.7°W
Report Text: KPKB 260853Z AUTO 34005KT 10SM CLR 01/M03 A3010 RMK AO2 SLP198 T00061033 57028
Loading
Personal Weather Stations






























Interactive Weather Map New forecast layout! Learn more

10-Day Weather Forecast

Advertisements
Track Severe Weather on mobile